sensor_id;sensor_type;location;lat;lon;timestamp;pressure;altitude;pressure_sealevel;temperature;humidity
68965;BME280;56017;48.680;8.998;2023-04-08T00:01:55;96930;;;8.5;76.5
68965;BME280;56017;48.680;8.998;2023-04-08T00:04:26;96930;;;8.6;76
68965;BME280;56017;48.680;8.998;2023-04-08T00:06:57;96930;;;8.6;76
68965;BME280;56017;48.680;8.998;2023-04-08T00:09:28;96930;;;8.5;76
68965;BME280;56017;48.680;8.998;2023-04-08T00:11:59;96930;;;8.5;76
68965;BME280;56017;48.680;8.998;2023-04-08T00:14:30;96930;;;8.6;76.5
68965;BME280;56017;48.680;8.998;2023-04-08T00:17:01;96940;;;8.5;76.5
68965;BME280;56017;48.680;8.998;2023-04-08T00:19:32;96940;;;8.5;76.5
68965;BME280;56017;48.680;8.998;2023-04-08T00:22:03;96940;;;8.5;76.5
68965;BME280;56017;48.680;8.998;2023-04-08T00:24:34;96940;;;8.5;76.5
68965;BME280;56017;48.680;8.998;2023-04-08T00:27:12;96940;;;8.5;76.5
68965;BME280;56017;48.680;8.998;2023-04-08T00:29:36;96940;;;8.5;77
68965;BME280;56017;48.680;8.998;2023-04-08T00:32:07;96940;;;8.4;77
68965;BME280;56017;48.680;8.998;2023-04-08T00:34:38;96950;;;8.4;77
68965;BME280;56017;48.680;8.998;2023-04-08T00:37:09;96940;;;8.4;77
68965;BME280;56017;48.680;8.998;2023-04-08T00:39:40;96950;;;8.4;77
68965;BME280;56017;48.680;8.998;2023-04-08T00:42:11;96950;;;8.3;77
68965;BME280;56017;48.680;8.998;2023-04-08T00:44:42;96950;;;8.3;77
68965;BME280;56017;48.680;8.998;2023-04-08T00:47:13;96950;;;8.3;77
68965;BME280;56017;48.680;8.998;2023-04-08T00:49:44;96950;;;8.3;77
68965;BME280;56017;48.680;8.998;2023-04-08T00:52:21;96950;;;8.2;77.5
68965;BME280;56017;48.680;8.998;2023-04-08T00:54:46;96960;;;8.1;77.5
68965;BME280;56017;48.680;8.998;2023-04-08T00:57:23;96960;;;8;77.5
68965;BME280;56017;48.680;8.998;2023-04-08T00:59:48;96960;;;8;78
68965;BME280;56017;48.680;8.998;2023-04-08T01:02:28;96960;;;8;78
68965;BME280;56017;48.680;8.998;2023-04-08T01:04:52;96960;;;8;77.5
68965;BME280;56017;48.680;8.998;2023-04-08T01:07:28;96960;;;8;77.5
68965;BME280;56017;48.680;8.998;2023-04-08T01:09:53;96960;;;8.1;77.5
68965;BME280;56017;48.680;8.998;2023-04-08T01:15:02;96950;;;8.1;77.5
68965;BME280;56017;48.680;8.998;2023-04-08T01:17:24;96960;;;8.1;77.5
68965;BME280;56017;48.680;8.998;2023-04-08T01:19:55;96950;;;8.1;77.5
68965;BME280;56017;48.680;8.998;2023-04-08T01:22:43;96950;;;8.1;77.5
68965;BME280;56017;48.680;8.998;2023-04-08T01:25:00;96960;;;8.2;77.5
68965;BME280;56017;48.680;8.998;2023-04-08T01:27:34;96960;;;8.3;77
68965;BME280;56017;48.680;8.998;2023-04-08T01:29:59;96960;;;8.3;77
68965;BME280;56017;48.680;8.998;2023-04-08T01:32:30;96960;;;8.3;77
68965;BME280;56017;48.680;8.998;2023-04-08T01:35:01;96950;;;8.3;77
68965;BME280;56017;48.680;8.998;2023-04-08T01:37:32;96950;;;8.3;77
68965;BME280;56017;48.680;8.998;2023-04-08T01:40:03;96950;;;8.4;77
68965;BME280;56017;48.680;8.998;2023-04-08T01:42:42;96950;;;8.3;77
68965;BME280;56017;48.680;8.998;2023-04-08T01:45:05;96950;;;8.3;77
68965;BME280;56017;48.680;8.998;2023-04-08T01:50:07;96950;;;8.1;77
68965;BME280;56017;48.680;8.998;2023-04-08T01:52:37;96950;;;8.2;77
68965;BME280;56017;48.680;8.998;2023-04-08T01:55:09;96940;;;8.2;77.5
68965;BME280;56017;48.680;8.998;2023-04-08T01:57:40;96940;;;8.3;77
68965;BME280;56017;48.680;8.998;2023-04-08T02:00:11;96950;;;8.3;77
68965;BME280;56017;48.680;8.998;2023-04-08T02:02:41;96950;;;8.3;77
68965;BME280;56017;48.680;8.998;2023-04-08T02:05:12;96950;;;8.3;77
68965;BME280;56017;48.680;8.998;2023-04-08T02:07:50;96950;;;8.2;77
68965;BME280;56017;48.680;8.998;2023-04-08T02:12:45;96950;;;8.3;77
68965;BME280;56017;48.680;8.998;2023-04-08T02:15:16;96950;;;8.3;77
68965;BME280;56017;48.680;8.998;2023-04-08T02:17:54;96950;;;8.2;77
68965;BME280;56017;48.680;8.998;2023-04-08T02:20:21;96950;;;8.2;77
68965;BME280;56017;48.680;8.998;2023-04-08T02:22:53;96950;;;8.1;77
68965;BME280;56017;48.680;8.998;2023-04-08T02:25:21;96950;;;8.1;77.5
68965;BME280;56017;48.680;8.998;2023-04-08T02:27:59;96950;;;8.1;77
68965;BME280;56017;48.680;8.998;2023-04-08T02:30:22;96960;;;8;77
68965;BME280;56017;48.680;8.998;2023-04-08T02:33:00;96960;;;8;77.5
68965;BME280;56017;48.680;8.998;2023-04-08T02:35:24;96950;;;7.9;77
68965;BME280;56017;48.680;8.998;2023-04-08T02:38:01;96950;;;7.9;77.5
68965;BME280;56017;48.680;8.998;2023-04-08T02:40:28;96950;;;7.9;77.5
68965;BME280;56017;48.680;8.998;2023-04-08T02:42:57;96950;;;7.9;77.5
68965;BME280;56017;48.680;8.998;2023-04-08T02:45:29;96950;;;7.9;77
68965;BME280;56017;48.680;8.998;2023-04-08T02:47:59;96950;;;7.9;77
68965;BME280;56017;48.680;8.998;2023-04-08T02:50:30;96950;;;7.9;77
68965;BME280;56017;48.680;8.998;2023-04-08T02:53:01;96950;;;7.9;77
68965;BME280;56017;48.680;8.998;2023-04-08T02:55:46;96950;;;7.8;77.5
68965;BME280;56017;48.680;8.998;2023-04-08T02:58:03;96950;;;7.8;77.5
68965;BME280;56017;48.680;8.998;2023-04-08T03:00:34;96950;;;7.9;77.5
68965;BME280;56017;48.680;8.998;2023-04-08T03:03:05;96950;;;7.8;77
68965;BME280;56017;48.680;8.998;2023-04-08T03:05:35;96950;;;7.9;77.5
68965;BME280;56017;48.680;8.998;2023-04-08T03:08:06;96950;;;7.9;77
68965;BME280;56017;48.680;8.998;2023-04-08T03:10:37;96950;;;7.9;77
68965;BME280;56017;48.680;8.998;2023-04-08T03:13:08;96950;;;7.9;77
68965;BME280;56017;48.680;8.998;2023-04-08T03:15:40;96950;;;7.9;77
68965;BME280;56017;48.680;8.998;2023-04-08T03:18:17;96950;;;8;77
68965;BME280;56017;48.680;8.998;2023-04-08T03:20:41;96950;;;7.9;77
68965;BME280;56017;48.680;8.998;2023-04-08T03:25:43;96950;;;7.8;77.5
68965;BME280;56017;48.680;8.998;2023-04-08T03:28:14;96950;;;7.8;77.5
68965;BME280;56017;48.680;8.998;2023-04-08T03:30:46;96950;;;7.8;77.5
68965;BME280;56017;48.680;8.998;2023-04-08T03:33:16;96950;;;7.8;77.5
68965;BME280;56017;48.680;8.998;2023-04-08T03:35:47;96950;;;7.8;77.5
68965;BME280;56017;48.680;8.998;2023-04-08T03:38:18;96950;;;7.7;77.5
68965;BME280;56017;48.680;8.998;2023-04-08T03:40:49;96950;;;7.7;77.5
68965;BME280;56017;48.680;8.998;2023-04-08T03:43:20;96950;;;7.7;77.5
68965;BME280;56017;48.680;8.998;2023-04-08T03:45:51;96950;;;7.7;77.5
68965;BME280;56017;48.680;8.998;2023-04-08T03:48:22;96950;;;7.7;77.5
68965;BME280;56017;48.680;8.998;2023-04-08T03:50:53;96950;;;7.8;77.5
68965;BME280;56017;48.680;8.998;2023-04-08T03:53:24;96950;;;7.7;77.5
68965;BME280;56017;48.680;8.998;2023-04-08T03:55:55;96950;;;7.7;77.5
68965;BME280;56017;48.680;8.998;2023-04-08T03:58:26;96950;;;7.7;77.5
68965;BME280;56017;48.680;8.998;2023-04-08T04:00:57;96950;;;7.8;77.5
68965;BME280;56017;48.680;8.998;2023-04-08T04:03:28;96950;;;7.8;77
68965;BME280;56017;48.680;8.998;2023-04-08T04:05:59;96950;;;7.8;77.5
68965;BME280;56017;48.680;8.998;2023-04-08T04:11:01;96950;;;7.8;77
68965;BME280;56017;48.680;8.998;2023-04-08T04:13:32;96950;;;7.9;77
68965;BME280;56017;48.680;8.998;2023-04-08T04:16:03;96950;;;8;76.5
68965;BME280;56017;48.680;8.998;2023-04-08T04:18:34;96950;;;7.9;77
68965;BME280;56017;48.680;8.998;2023-04-08T04:21:05;96960;;;7.9;77
68965;BME280;56017;48.680;8.998;2023-04-08T04:23:36;96960;;;7.8;77
68965;BME280;56017;48.680;8.998;2023-04-08T04:26:07;96960;;;7.8;77.5
68965;BME280;56017;48.680;8.998;2023-04-08T04:28:37;96970;;;7.8;77.5
68965;BME280;56017;48.680;8.998;2023-04-08T04:31:16;96970;;;7.9;77
68965;BME280;56017;48.680;8.998;2023-04-08T04:33:39;96970;;;7.8;77
68965;BME280;56017;48.680;8.998;2023-04-08T04:36:10;96970;;;7.8;77.5
68965;BME280;56017;48.680;8.998;2023-04-08T04:38:42;96970;;;7.8;77
68965;BME280;56017;48.680;8.998;2023-04-08T04:41:12;96980;;;7.8;77
68965;BME280;56017;48.680;8.998;2023-04-08T04:43:43;96970;;;7.8;77
68965;BME280;56017;48.680;8.998;2023-04-08T04:46:14;96970;;;7.8;77
68965;BME280;56017;48.680;8.998;2023-04-08T04:48:45;96970;;;7.8;77.5
68965;BME280;56017;48.680;8.998;2023-04-08T04:51:16;96970;;;7.7;77.5
68965;BME280;56017;48.680;8.998;2023-04-08T04:53:47;96970;;;7.7;77
68965;BME280;56017;48.680;8.998;2023-04-08T04:56:18;96970;;;7.6;77.5
68965;BME280;56017;48.680;8.998;2023-04-08T04:58:49;96980;;;7.6;77.5
68965;BME280;56017;48.680;8.998;2023-04-08T05:01:20;96980;;;7.5;77.5
68965;BME280;56017;48.680;8.998;2023-04-08T05:03:51;96990;;;7.5;77.5
68965;BME280;56017;48.680;8.998;2023-04-08T05:06:22;96990;;;7.6;77.5
68965;BME280;56017;48.680;8.998;2023-04-08T05:09:00;96990;;;7.8;77.5
68965;BME280;56017;48.680;8.998;2023-04-08T05:11:24;96990;;;7.9;77
68965;BME280;56017;48.680;8.998;2023-04-08T05:14:01;96990;;;8;76.5
68965;BME280;56017;48.680;8.998;2023-04-08T05:16:26;96990;;;8;77
68965;BME280;56017;48.680;8.998;2023-04-08T05:18:57;97000;;;8;77
68965;BME280;56017;48.680;8.998;2023-04-08T05:21:28;97000;;;7.9;77
68965;BME280;56017;48.680;8.998;2023-04-08T05:23:59;97000;;;7.8;77.5
68965;BME280;56017;48.680;8.998;2023-04-08T05:26:30;97000;;;7.8;77.5
68965;BME280;56017;48.680;8.998;2023-04-08T05:29:01;97000;;;7.8;77.5
68965;BME280;56017;48.680;8.998;2023-04-08T05:31:31;97000;;;7.9;77.5
68965;BME280;56017;48.680;8.998;2023-04-08T05:34:02;97000;;;7.9;77.5
68965;BME280;56017;48.680;8.998;2023-04-08T05:36:33;97000;;;7.8;77.5
68965;BME280;56017;48.680;8.998;2023-04-08T05:39:04;97010;;;7.8;77.5
68965;BME280;56017;48.680;8.998;2023-04-08T05:41:35;97010;;;7.8;77.5
68965;BME280;56017;48.680;8.998;2023-04-08T05:44:06;97010;;;7.7;77.5
68965;BME280;56017;48.680;8.998;2023-04-08T05:46:37;97010;;;7.9;77.5
68965;BME280;56017;48.680;8.998;2023-04-08T05:49:08;97010;;;8.1;77
68965;BME280;56017;48.680;8.998;2023-04-08T05:51:39;97010;;;8.2;76.5
68965;BME280;56017;48.680;8.998;2023-04-08T05:54:10;97010;;;8.3;76.5
68965;BME280;56017;48.680;8.998;2023-04-08T05:56:41;97020;;;8.3;77
68965;BME280;56017;48.680;8.998;2023-04-08T05:59:12;97020;;;8.3;77.5
68965;BME280;56017;48.680;8.998;2023-04-08T06:01:43;97020;;;8.3;77
68965;BME280;56017;48.680;8.998;2023-04-08T06:04:14;97030;;;8.4;77.5
68965;BME280;56017;48.680;8.998;2023-04-08T06:06:45;97030;;;8.5;77.5
68965;BME280;56017;48.680;8.998;2023-04-08T06:09:16;97030;;;8.6;77
68965;BME280;56017;48.680;8.998;2023-04-08T06:11:47;97030;;;8.6;77
68965;BME280;56017;48.680;8.998;2023-04-08T06:14:18;97030;;;8.5;77
68965;BME280;56017;48.680;8.998;2023-04-08T06:16:49;97040;;;8.3;77.5
68965;BME280;56017;48.680;8.998;2023-04-08T06:19:19;97040;;;8.2;78
68965;BME280;56017;48.680;8.998;2023-04-08T06:21:51;97040;;;8.2;78
68965;BME280;56017;48.680;8.998;2023-04-08T06:24:21;97040;;;8.1;78
68965;BME280;56017;48.680;8.998;2023-04-08T06:26:53;97040;;;8.3;78
68965;BME280;56017;48.680;8.998;2023-04-08T06:29:30;97040;;;8.4;77.5
68965;BME280;56017;48.680;8.998;2023-04-08T06:31:54;97040;;;8.4;78
68965;BME280;56017;48.680;8.998;2023-04-08T06:34:25;97040;;;8.5;77.5
68965;BME280;56017;48.680;8.998;2023-04-08T06:36:56;97040;;;8.6;77.5
68965;BME280;56017;48.680;8.998;2023-04-08T06:41:58;97050;;;8.5;77.5
68965;BME280;56017;48.680;8.998;2023-04-08T06:44:29;97050;;;8.6;77.5
68965;BME280;56017;48.680;8.998;2023-04-08T06:47:00;97060;;;8.5;77.5
68965;BME280;56017;48.680;8.998;2023-04-08T06:49:31;97060;;;8.6;77.5
68965;BME280;56017;48.680;8.998;2023-04-08T06:52:02;97060;;;8.7;77.5
68965;BME280;56017;48.680;8.998;2023-04-08T06:54:33;97060;;;8.7;77.5
68965;BME280;56017;48.680;8.998;2023-04-08T06:57:11;97050;;;8.6;77.5
68965;BME280;56017;48.680;8.998;2023-04-08T07:02:06;97060;;;8.8;77.5
68965;BME280;56017;48.680;8.998;2023-04-08T07:04:37;97060;;;8.8;77.5
68965;BME280;56017;48.680;8.998;2023-04-08T07:07:08;97060;;;8.8;77.5
68965;BME280;56017;48.680;8.998;2023-04-08T07:09:45;97060;;;8.8;77.5
68965;BME280;56017;48.680;8.998;2023-04-08T07:12:17;97050;;;8.7;77.5
68965;BME280;56017;48.680;8.998;2023-04-08T07:14:41;97060;;;8.7;77.5
68965;BME280;56017;48.680;8.998;2023-04-08T07:17:18;97060;;;8.6;78
68965;BME280;56017;48.680;8.998;2023-04-08T07:19:43;97060;;;8.6;78
68965;BME280;56017;48.680;8.998;2023-04-08T07:22:14;97060;;;8.6;78
68965;BME280;56017;48.680;8.998;2023-04-08T07:27:16;97070;;;9.1;77
68965;BME280;56017;48.680;8.998;2023-04-08T07:29:51;97070;;;9.1;77
68965;BME280;56017;48.680;8.998;2023-04-08T07:32:18;97080;;;8.8;77.5
68965;BME280;56017;48.680;8.998;2023-04-08T07:34:49;97080;;;8.7;78
68965;BME280;56017;48.680;8.998;2023-04-08T07:37:20;97080;;;8.7;78
68965;BME280;56017;48.680;8.998;2023-04-08T07:42:21;97090;;;8.6;78
68965;BME280;56017;48.680;8.998;2023-04-08T07:47:30;97090;;;8.9;77.5
68965;BME280;56017;48.680;8.998;2023-04-08T07:49:54;97100;;;9;77.5
68965;BME280;56017;48.680;8.998;2023-04-08T07:52:25;97090;;;9;77.5
68965;BME280;56017;48.680;8.998;2023-04-08T07:54:56;97090;;;9;78
68965;BME280;56017;48.680;8.998;2023-04-08T07:57:34;97090;;;9.1;77.5
68965;BME280;56017;48.680;8.998;2023-04-08T08:00:06;97100;;;9.3;77.5
68965;BME280;56017;48.680;8.998;2023-04-08T08:05:00;97090;;;9.7;77
68965;BME280;56017;48.680;8.998;2023-04-08T08:07:32;97100;;;9.5;77.5
68965;BME280;56017;48.680;8.998;2023-04-08T08:10:02;97090;;;9.5;77.5
68965;BME280;56017;48.680;8.998;2023-04-08T08:12:33;97100;;;9.6;77.5
68965;BME280;56017;48.680;8.998;2023-04-08T08:15:04;97100;;;9.8;77.5
68965;BME280;56017;48.680;8.998;2023-04-08T08:17:36;97090;;;10;77
68965;BME280;56017;48.680;8.998;2023-04-08T08:20:06;97100;;;10.1;77
68965;BME280;56017;48.680;8.998;2023-04-08T08:22:38;97100;;;10.1;76.5
68965;BME280;56017;48.680;8.998;2023-04-08T08:25:08;97100;;;10.2;76.5
68965;BME280;56017;48.680;8.998;2023-04-08T08:27:40;97100;;;10;77
68965;BME280;56017;48.680;8.998;2023-04-08T08:30:10;97100;;;10.3;77
68965;BME280;56017;48.680;8.998;2023-04-08T08:32:48;97110;;;10.3;76.5
68965;BME280;56017;48.680;8.998;2023-04-08T08:35:12;97100;;;10.1;77
68965;BME280;56017;48.680;8.998;2023-04-08T08:40:14;97110;;;10;78
68965;BME280;56017;48.680;8.998;2023-04-08T08:42:52;97120;;;10;77.5
68965;BME280;56017;48.680;8.998;2023-04-08T08:45:16;97120;;;10.1;78
68965;BME280;56017;48.680;8.998;2023-04-08T08:47:47;97110;;;10.3;77.5
68965;BME280;56017;48.680;8.998;2023-04-08T08:55:20;97110;;;11;75.5
68965;BME280;56017;48.680;8.998;2023-04-08T08:57:51;97120;;;10.9;76
68965;BME280;56017;48.680;8.998;2023-04-08T09:00:37;97120;;;10.6;77
68965;BME280;56017;48.680;8.998;2023-04-08T09:02:53;97120;;;10.6;77.5
68965;BME280;56017;48.680;8.998;2023-04-08T09:05:24;97120;;;10.6;77.5
68965;BME280;56017;48.680;8.998;2023-04-08T09:07:55;97120;;;10.7;77.5
68965;BME280;56017;48.680;8.998;2023-04-08T09:10:27;97120;;;10.8;77.5
68965;BME280;56017;48.680;8.998;2023-04-08T09:12:57;97120;;;10.7;77.5
68965;BME280;56017;48.680;8.998;2023-04-08T09:15:28;97120;;;10.7;78
68965;BME280;56017;48.680;8.998;2023-04-08T09:18:15;97130;;;10.7;78
68965;BME280;56017;48.680;8.998;2023-04-08T09:20:29;97130;;;10.8;77.5
68965;BME280;56017;48.680;8.998;2023-04-08T09:23:07;97130;;;10.8;77.5
68965;BME280;56017;48.680;8.998;2023-04-08T09:25:32;97120;;;10.8;78
68965;BME280;56017;48.680;8.998;2023-04-08T09:28:02;97130;;;10.9;77.5
68965;BME280;56017;48.680;8.998;2023-04-08T09:30:33;97130;;;11;78
68965;BME280;56017;48.680;8.998;2023-04-08T09:33:05;97120;;;11.3;77.5
68965;BME280;56017;48.680;8.998;2023-04-08T09:35:35;97130;;;11.6;77.5
68965;BME280;56017;48.680;8.998;2023-04-08T09:38:07;97130;;;11.6;77
68965;BME280;56017;48.680;8.998;2023-04-08T09:43:09;97130;;;11.6;77.5
68965;BME280;56017;48.680;8.998;2023-04-08T09:45:39;97130;;;11.8;77.5
68965;BME280;56017;48.680;8.998;2023-04-08T09:50:42;97130;;;12.1;77.5
68965;BME280;56017;48.680;8.998;2023-04-08T09:53:13;97120;;;12.6;77
68965;BME280;56017;48.680;8.998;2023-04-08T09:55:42;97120;;;13.1;76
68965;BME280;56017;48.680;8.998;2023-04-08T09:58:15;97130;;;13.2;76
68965;BME280;56017;48.680;8.998;2023-04-08T10:00:46;97130;;;13.3;76.5
68965;BME280;56017;48.680;8.998;2023-04-08T10:03:20;97120;;;13.6;76
68965;BME280;56017;48.680;8.998;2023-04-08T10:05:46;97120;;;13.7;75.5
68965;BME280;56017;48.680;8.998;2023-04-08T10:08:17;97130;;;13.6;75.5
68965;BME280;56017;48.680;8.998;2023-04-08T10:10:48;97120;;;13.6;75.5
68965;BME280;56017;48.680;8.998;2023-04-08T10:15:50;97130;;;13.6;75
68965;BME280;56017;48.680;8.998;2023-04-08T10:20:52;97120;;;13.7;76
68965;BME280;56017;48.680;8.998;2023-04-08T10:23:51;97130;;;13.7;76
68965;BME280;56017;48.680;8.998;2023-04-08T10:25:54;97130;;;13.5;76
68965;BME280;56017;48.680;8.998;2023-04-08T10:28:25;97130;;;13.1;76
68965;BME280;56017;48.680;8.998;2023-04-08T10:30:56;97130;;;12.7;77
68965;BME280;56017;48.680;8.998;2023-04-08T10:33:33;97130;;;12.6;77.5
68965;BME280;56017;48.680;8.998;2023-04-08T10:38:35;97120;;;13.6;77
68965;BME280;56017;48.680;8.998;2023-04-08T10:40:59;97120;;;13.6;76
68965;BME280;56017;48.680;8.998;2023-04-08T10:46:02;97120;;;13.8;75.5
68965;BME280;56017;48.680;8.998;2023-04-08T10:48:32;97130;;;13.6;76
68965;BME280;56017;48.680;8.998;2023-04-08T10:51:03;97120;;;13.4;76.5
68965;BME280;56017;48.680;8.998;2023-04-08T10:53:36;97130;;;13.1;77
68965;BME280;56017;48.680;8.998;2023-04-08T10:56:07;97130;;;12.8;77.5
68965;BME280;56017;48.680;8.998;2023-04-08T10:58:45;97130;;;12.6;77.5
68965;BME280;56017;48.680;8.998;2023-04-08T11:03:38;97110;;;12.5;77.5
68965;BME280;56017;48.680;8.998;2023-04-08T11:06:09;97120;;;12.6;77
